Time;durP1;ratioP1;P1;durP2;ratioP2;P2;SDS_P1;SDS_P2;PMS_P1;PMS_P2;Temp;Humidity;BMP_temperature;BMP_pressure;BME280_temperature;BME280_humidity;BME280_pressure;Samples;Min_cycle;Max_cycle;Signal;HPM_P1;HPM_P2
2022/04/24 11:11:05;;;;;;;11.63;8.05;;;14.00;99.90;;;;;;5148202;27;20532;-67
2022/04/24 11:13:31;;;;;;;12.80;8.50;;;14.20;99.90;;;;;;5130812;28;20219;-67
2022/04/24 11:16:00;;;;;;;9.75;8.70;;;14.30;99.90;;;;;;5131978;27;20563;-67
2022/04/24 11:18:27;;;;;;;9.15;8.20;;;14.30;99.90;;;;;;5131803;27;20173;-67
2022/04/24 11:20:58;;;;;;;8.98;8.13;;;14.40;99.90;;;;;;5131916;28;20246;-67
2022/04/24 11:23:43;;;;;;;8.88;8.00;;;14.50;99.90;;;;;;5130299;28;20166;-67
2022/04/24 11:26:10;;;;;;;9.10;8.23;;;14.60;99.90;;;;;;5130344;28;20657;-67
2022/04/24 11:28:44;;;;;;;9.73;8.57;;;14.70;99.90;;;;;;5131464;28;20185;-66
2022/04/24 11:31:18;;;;;;;7.47;6.93;;;14.80;99.90;;;;;;5131759;28;20642;-67
2022/04/24 11:33:56;;;;;;;8.73;8.02;;;14.80;99.90;;;;;;5130367;27;20185;-67
2022/04/24 11:36:36;;;;;;;7.80;7.10;;;15.00;99.90;;;;;;5131421;27;20704;-68
2022/04/24 11:39:05;;;;;;;10.35;8.18;;;15.30;99.90;;;;;;5131430;27;20174;-68
2022/04/24 11:41:31;;;;;;;8.23;7.57;;;15.50;99.90;;;;;;5131494;27;20171;-68
2022/04/24 11:52:24;;;;;;;8.18;7.57;;;15.80;99.90;;;;;;5131306;28;20170;-67
2022/04/24 11:54:51;;;;;;;8.13;7.25;;;15.80;99.90;;;;;;5131336;28;20167;-67
2022/04/24 11:57:18;;;;;;;8.02;7.43;;;15.80;99.90;;;;;;5131045;28;20531;-67
2022/04/24 11:59:52;;;;;;;8.00;7.40;;;15.80;99.90;;;;;;5129692;27;20174;-67
2022/04/24 12:02:18;;;;;;;8.02;7.28;;;15.90;99.90;;;;;;5131037;27;20239;-67
2022/04/24 12:04:49;;;;;;;7.70;7.00;;;16.10;99.90;;;;;;5131245;28;20628;-67
2022/04/24 12:07:14;;;;;;;10.38;7.07;;;16.30;99.90;;;;;;5131141;27;20193;-67
2022/04/24 12:09:40;;;;;;;6.55;6.15;;;16.50;99.90;;;;;;5130622;27;20695;-67
2022/04/24 12:12:08;;;;;;;7.78;6.82;;;16.70;99.90;;;;;;5130958;27;20293;-67
2022/04/24 12:14:35;;;;;;;7.10;6.60;;;16.90;99.90;;;;;;5130746;28;20246;-67
2022/04/24 12:17:04;;;;;;;7.72;6.57;;;17.00;99.90;;;;;;5130881;27;20162;-67
2022/04/24 12:19:29;;;;;;;7.40;6.88;;;17.00;99.90;;;;;;5130672;28;20166;-67
2022/04/24 12:21:55;;;;;;;7.82;7.20;;;17.10;99.90;;;;;;5118018;28;20182;-67
2022/04/24 12:24:21;;;;;;;7.55;7.05;;;17.20;99.90;;;;;;5116861;28;20175;-67
2022/04/24 12:26:48;;;;;;;10.38;7.20;;;17.20;99.90;;;;;;5116702;28;20667;-67
2022/04/24 12:29:15;;;;;;;8.05;7.35;;;17.30;99.90;;;;;;5116503;28;20198;-67
2022/04/24 12:31:41;;;;;;;7.43;6.82;;;17.30;99.90;;;;;;5116868;28;20242;-67
2022/04/24 12:34:07;;;;;;;7.25;6.57;;;17.10;99.90;;;;;;5116923;28;20259;-67
2022/04/24 12:36:32;;;;;;;6.63;6.10;;;16.80;99.90;;;;;;5116913;28;20242;-67
2022/04/24 12:39:00;;;;;;;9.13;6.70;;;16.50;99.90;;;;;;5116743;28;20216;-67
2022/04/24 12:41:28;;;;;;;7.28;6.57;;;16.40;99.90;;;;;;5116583;28;20605;-67
2022/04/24 12:44:01;;;;;;;7.88;7.18;;;16.60;99.90;;;;;;5116561;28;20250;-67
2022/04/24 12:46:27;;;;;;;7.15;6.55;;;16.60;99.90;;;;;;5116526;28;20258;-67
2022/04/24 12:48:54;;;;;;;7.32;6.70;;;16.70;99.90;;;;;;5116620;28;20269;-67
2022/04/24 12:51:23;;;;;;;8.18;7.40;;;16.60;99.90;;;;;;5116418;28;20251;-67
2022/04/24 12:53:50;;;;;;;7.85;6.32;;;16.70;99.90;;;;;;5116497;28;20167;-67
2022/04/24 12:56:15;;;;;;;7.28;6.70;;;16.90;99.90;;;;;;5116348;28;20166;-67
2022/04/24 12:58:42;;;;;;;6.97;6.47;;;17.20;99.90;;;;;;5116294;28;20654;-67
2022/04/24 13:01:11;;;;;;;6.65;6.15;;;17.60;99.90;;;;;;5116349;28;20503;-67
2022/04/24 13:03:37;;;;;;;6.60;6.15;;;17.80;99.90;;;;;;5115095;28;20262;-67
2022/04/24 13:06:03;;;;;;;7.30;6.80;;;18.10;99.90;;;;;;5116359;28;20159;-67
2022/04/24 13:08:29;;;;;;;6.57;5.95;;;18.40;99.90;;;;;;5115752;28;20171;-67
2022/04/24 13:10:55;;;;;;;8.10;6.22;;;18.60;99.90;;;;;;5116155;28;20185;-67
2022/04/24 13:13:20;;;;;;;6.35;5.95;;;18.70;99.90;;;;;;5116259;28;20200;-67
2022/04/24 13:18:07;;;;;;;6.75;6.28;;;18.40;99.90;;;;;;5114802;28;20257;-67
2022/04/24 13:18:32;;;;;;;10.57;6.07;;;18.10;99.90;;;;;;5115751;28;20220;-67
2022/04/24 13:20:58;;;;;;;8.88;6.03;;;17.70;99.90;;;;;;5115939;28;20545;-67
2022/04/24 13:23:23;;;;;;;6.75;6.25;;;17.80;99.90;;;;;;5115867;28;20692;-67
2022/04/24 13:25:50;;;;;;;7.40;6.75;;;18.00;99.90;;;;;;5115907;28;20538;-67
2022/04/24 13:28:16;;;;;;;9.52;6.70;;;18.20;99.90;;;;;;5115632;28;20186;-67
2022/04/24 13:30:44;;;;;;;7.75;7.05;;;18.20;99.90;;;;;;5115647;28;20223;-67
2022/04/24 13:33:09;;;;;;;7.78;6.95;;;18.20;99.90;;;;;;5113526;28;20171;-67
2022/04/24 13:35:35;;;;;;;8.75;6.88;;;18.00;99.90;;;;;;5115358;28;20546;-67
2022/04/24 13:38:19;;;;;;;7.88;7.13;;;17.80;99.90;;;;;;5115811;28;20170;-67
2022/04/24 13:40:53;;;;;;;9.05;6.70;;;17.50;99.90;;;;;;5115654;28;20171;-67
2022/04/24 13:43:19;;;;;;;15.80;7.38;;;17.20;99.90;;;;;;5115389;28;20631;-67
2022/04/24 13:45:47;;;;;;;8.18;7.57;;;17.00;99.90;;;;;;5115435;28;20182;-67
2022/04/24 13:48:12;;;;;;;7.63;6.95;;;16.90;99.90;;;;;;5115196;28;20159;-67
2022/04/24 13:50:38;;;;;;;7.30;6.70;;;17.00;99.90;;;;;;5115205;28;20203;-67
2022/04/24 13:53:05;;;;;;;12.60;7.18;;;17.30;99.90;;;;;;5115333;28;20216;-67
2022/04/24 13:55:31;;;;;;;11.05;6.90;;;17.60;99.90;;;;;;5115239;28;20565;-67
2022/04/24 13:57:57;;;;;;;9.52;6.82;;;17.70;99.90;;;;;;5115224;28;20171;-67
2022/04/24 14:00:24;;;;;;;7.68;7.18;;;17.80;99.90;;;;;;5115075;28;20175;-67
2022/04/24 14:02:53;;;;;;;7.88;7.20;;;17.90;99.90;;;;;;5114956;28;20257;-67
2022/04/24 14:05:22;;;;;;;8.23;7.63;;;17.90;99.90;;;;;;5115103;28;20171;-67
2022/04/24 14:07:49;;;;;;;7.50;6.72;;;17.70;99.90;;;;;;5115018;28;20253;-67
2022/04/24 14:10:15;;;;;;;8.63;7.82;;;17.80;99.90;;;;;;5114718;28;20214;-67
2022/04/24 14:12:41;;;;;;;7.72;6.82;;;18.20;99.90;;;;;;5115057;28;20192;-67
2022/04/24 14:15:06;;;;;;;6.95;6.40;;;18.40;99.90;;;;;;5114754;28;20219;-67
2022/04/24 14:17:32;;;;;;;6.78;6.32;;;18.80;99.90;;;;;;5114803;28;20174;-67
2022/04/24 14:19:59;;;;;;;6.70;6.20;;;19.20;99.90;;;;;;5114897;28;20166;-67
2022/04/24 14:22:25;;;;;;;7.78;7.22;;;19.30;99.90;;;;;;5114566;28;20205;-67
2022/04/24 14:24:50;;;;;;;6.88;6.47;;;19.50;99.90;;;;;;5114563;28;20205;-67
2022/04/24 14:27:19;;;;;;;6.25;5.75;;;19.50;99.90;;;;;;5114715;28;20642;-67
2022/04/24 14:29:44;;;;;;;6.07;5.75;;;19.60;99.90;;;;;;5114341;28;20272;-67
2022/04/24 14:32:12;;;;;;;6.97;6.03;;;19.90;99.90;;;;;;5114587;28;20243;-67
2022/04/24 14:34:39;;;;;;;6.57;6.18;;;20.00;99.90;;;;;;5114352;28;20185;-67
2022/04/24 14:37:05;;;;;;;6.18;5.72;;;19.90;99.90;;;;;;5114599;28;20610;-67
2022/04/24 14:39:31;;;;;;;6.63;6.13;;;20.10;99.90;;;;;;5114396;28;20197;-67
2022/04/24 14:41:57;;;;;;;6.40;5.90;;;20.20;99.90;;;;;;5113126;28;20170;-67
2022/04/24 14:44:23;;;;;;;7.47;6.88;;;20.00;99.90;;;;;;5114155;28;20200;-67
2022/04/24 14:57:45;;;;;;;6.20;5.70;;;19.00;99.90;;;;;;5114074;28;20227;-66
2022/04/24 15:00:11;;;;;;;6.90;6.30;;;18.30;99.90;;;;;;5114165;28;20520;-67
2022/04/24 15:02:36;;;;;;;6.63;5.97;;;17.90;99.90;;;;;;5114093;28;20174;-67
2022/04/24 15:05:03;;;;;;;6.60;6.15;;;17.50;99.90;;;;;;5114045;28;20162;-67
2022/04/24 15:07:29;;;;;;;6.60;6.20;;;17.20;99.90;;;;;;5113821;28;20174;-67
2022/04/24 15:09:54;;;;;;;9.57;7.10;;;17.30;99.90;;;;;;5113656;28;20214;-67
2022/04/24 15:12:20;;;;;;;6.18;5.68;;;17.70;99.90;;;;;;5113894;28;20163;-67
2022/04/24 15:14:46;;;;;;;6.28;5.97;;;18.20;99.90;;;;;;5112494;28;20223;-67
2022/04/24 15:17:11;;;;;;;7.07;6.38;;;18.60;99.90;;;;;;5113878;28;20159;-67
2022/04/24 15:19:37;;;;;;;6.35;5.85;;;18.90;99.90;;;;;;5113730;28;20169;-67
2022/04/24 15:22:03;;;;;;;6.32;5.82;;;19.40;99.90;;;;;;5113941;28;20182;-67
2022/04/24 15:24:30;;;;;;;8.27;5.53;;;19.80;99.90;;;;;;5113938;28;20174;-67
2022/04/24 15:26:56;;;;;;;5.32;4.82;;;20.10;99.90;;;;;;5113864;28;20337;-67
2022/04/24 15:29:24;;;;;;;6.30;5.80;;;20.20;99.90;;;;;;5113633;28;20279;-67
2022/04/24 15:31:51;;;;;;;5.85;5.45;;;20.00;99.90;;;;;;5113853;28;20208;-67
2022/04/24 15:34:20;;;;;;;6.25;5.68;;;19.70;99.90;;;;;;5113918;28;20167;-67
2022/04/24 15:36:51;;;;;;;6.40;5.82;;;19.20;99.90;;;;;;5113843;28;20162;-67
2022/04/24 15:39:20;;;;;;;8.63;5.47;;;18.80;99.90;;;;;;5113891;28;20170;-67
2022/04/24 15:41:49;;;;;;;5.55;5.25;;;18.80;99.90;;;;;;5112460;28;20370;-67
2022/04/24 15:44:19;;;;;;;5.40;5.10;;;18.80;99.90;;;;;;5112589;28;20170;-67
2022/04/24 15:46:45;;;;;;;6.88;5.10;;;18.80;99.90;;;;;;5113667;28;20166;-67
2022/04/24 15:49:12;;;;;;;6.53;5.90;;;18.80;99.90;;;;;;5113473;28;20190;-67
2022/04/24 15:51:38;;;;;;;6.25;5.80;;;18.90;99.90;;;;;;5113754;28;20171;-67
2022/04/24 15:54:04;;;;;;;6.72;5.43;;;18.90;99.90;;;;;;5113693;28;20335;-67
2022/04/24 15:56:30;;;;;;;7.70;4.85;;;18.80;99.90;;;;;;5114196;28;20170;-68
2022/04/24 15:58:57;;;;;;;5.68;5.28;;;18.60;99.90;;;;;;5117441;28;20528;-68
2022/04/24 16:01:24;;;;;;;5.85;5.35;;;18.40;99.90;;;;;;5117328;28;20162;-67
2022/04/24 16:03:50;;;;;;;5.90;5.35;;;18.20;99.90;;;;;;5117296;28;20231;-67
2022/04/24 16:06:15;;;;;;;4.95;4.65;;;18.40;99.90;;;;;;5117370;28;20176;-67
2022/04/24 16:08:41;;;;;;;7.57;5.47;;;18.80;99.90;;;;;;5116865;28;20642;-68
2022/04/24 16:11:07;;;;;;;5.50;5.15;;;19.10;99.90;;;;;;5116198;28;20170;-67
2022/04/24 16:13:32;;;;;;;4.70;4.40;;;19.40;99.90;;;;;;5117129;28;20624;-67
2022/04/24 16:16:01;;;;;;;5.53;5.13;;;19.50;99.90;;;;;;5116958;28;20202;-67
2022/04/24 16:18:27;;;;;;;5.55;5.15;;;19.60;99.90;;;;;;5117074;28;20253;-68
2022/04/24 16:20:53;;;;;;;5.47;5.10;;;19.70;99.90;;;;;;5116913;28;20198;-67
2022/04/24 16:23:18;;;;;;;4.97;4.65;;;19.80;99.90;;;;;;5117058;28;20611;-67
2022/04/24 16:25:45;;;;;;;5.55;5.25;;;19.80;99.90;;;;;;5116966;28;20546;-67
2022/04/24 16:28:11;;;;;;;4.82;4.53;;;19.70;99.90;;;;;;5116801;28;20182;-67
2022/04/24 16:30:37;;;;;;;5.65;5.25;;;19.60;99.90;;;;;;5116798;28;20205;-67
2022/04/24 16:33:04;;;;;;;5.25;4.95;;;19.70;99.90;;;;;;5116772;28;20165;-67
2022/04/24 16:35:30;;;;;;;5.75;5.28;;;19.60;99.90;;;;;;5116478;28;20570;-68
2022/04/24 16:37:56;;;;;;;4.78;4.47;;;19.60;99.90;;;;;;5116590;28;20184;-68
2022/04/24 16:40:23;;;;;;;5.55;5.22;;;19.50;99.90;;;;;;5116832;28;20621;-67
2022/04/24 16:42:49;;;;;;;4.95;4.40;;;19.40;99.90;;;;;;5116690;28;20607;-68
2022/04/24 16:45:15;;;;;;;7.28;5.22;;;19.40;99.90;;;;;;5116426;28;20269;-67
2022/04/24 16:47:42;;;;;;;5.43;4.97;;;19.40;99.90;;;;;;5116598;28;20198;-68
2022/04/24 16:50:08;;;;;;;5.47;5.18;;;19.40;99.90;;;;;;5116374;28;20273;-68
2022/04/24 17:00:34;;;;;;;5.20;4.82;;;19.00;99.90;;;;;;5116265;28;20172;-68
2022/04/24 17:03:03;;;;;;;5.15;4.80;;;19.00;99.90;;;;;;5116259;28;20181;-67
2022/04/24 17:05:29;;;;;;;8.63;5.45;;;19.00;99.90;;;;;;5116148;28;20162;-67
2022/04/24 17:07:55;;;;;;;5.35;5.05;;;19.00;99.90;;;;;;5115827;28;20262;-67
2022/04/24 17:10:20;;;;;;;5.45;4.95;;;18.90;99.90;;;;;;5115521;28;20300;-68
2022/04/24 17:12:46;;;;;;;5.43;5.13;;;18.80;99.90;;;;;;5116139;28;20170;-68
2022/04/24 17:15:12;;;;;;;5.38;5.00;;;18.40;99.90;;;;;;5115965;28;20159;-67
2022/04/24 17:17:41;;;;;;;5.68;4.80;;;18.00;99.90;;;;;;5115722;28;20171;-67
2022/04/24 17:20:07;;;;;;;5.45;5.05;;;17.60;99.90;;;;;;5115741;28;20542;-67
2022/04/24 17:22:33;;;;;;;5.43;5.03;;;17.40;99.90;;;;;;5115701;28;20249;-67
2022/04/24 17:24:59;;;;;;;5.22;4.82;;;17.20;99.90;;;;;;5115830;28;20198;-67
2022/04/24 17:27:25;;;;;;;7.03;5.13;;;17.00;99.90;;;;;;5115804;28;20166;-67
2022/04/24 17:29:50;;;;;;;9.43;5.43;;;16.90;99.90;;;;;;5115712;28;20233;-68
2022/04/24 17:32:18;;;;;;;4.82;4.50;;;16.70;99.90;;;;;;5115619;28;20173;-67
2022/04/24 17:34:44;;;;;;;5.38;4.97;;;16.40;99.90;;;;;;5115684;28;20258;-67
2022/04/24 17:37:11;;;;;;;4.97;4.22;;;16.10;99.90;;;;;;5114550;28;20582;-67
2022/04/24 17:39:37;;;;;;;5.47;4.88;;;15.90;99.90;;;;;;5115392;28;20616;-67
2022/04/24 17:42:03;;;;;;;5.75;5.22;;;15.60;99.90;;;;;;5115416;28;20215;-67
2022/04/24 17:44:33;;;;;;;5.28;4.55;;;15.40;99.90;;;;;;5115518;28;20167;-67
2022/04/24 17:47:00;;;;;;;5.75;5.05;;;15.20;99.90;;;;;;5115486;28;20171;-67
2022/04/24 17:49:27;;;;;;;5.13;4.72;;;15.10;99.90;;;;;;5115278;28;20191;-67
2022/04/24 17:51:53;;;;;;;5.93;4.82;;;15.10;99.90;;;;;;5115283;28;20163;-67
2022/04/24 17:54:18;;;;;;;5.55;4.80;;;14.80;99.90;;;;;;5115069;28;20203;-67
2022/04/24 17:56:44;;;;;;;4.80;4.38;;;14.80;99.90;;;;;;5115018;28;20174;-68
2022/04/24 17:59:10;;;;;;;7.50;4.93;;;14.60;99.90;;;;;;5115173;28;20555;-68
2022/04/24 18:01:35;;;;;;;7.13;5.32;;;14.60;99.90;;;;;;5115095;28;20163;-67
2022/04/24 18:04:01;;;;;;;5.22;4.70;;;14.50;99.90;;;;;;5114867;28;20255;-68
2022/04/24 18:06:28;;;;;;;5.45;4.95;;;14.50;99.90;;;;;;5114703;28;20240;-67
2022/04/24 18:08:54;;;;;;;5.75;3.95;;;14.50;99.90;;;;;;5114539;28;20218;-68
2022/04/24 18:11:20;;;;;;;5.93;4.47;;;14.70;99.90;;;;;;5114918;28;20237;-67
2022/04/24 18:13:45;;;;;;;4.50;4.20;;;14.60;99.90;;;;;;5114674;28;20194;-67
2022/04/24 18:16:12;;;;;;;5.35;4.88;;;14.70;99.90;;;;;;5114809;28;20568;-67
2022/04/24 18:18:41;;;;;;;6.13;5.03;;;14.80;99.90;;;;;;5114111;28;20188;-68
2022/04/24 18:21:08;;;;;;;8.55;5.22;;;14.70;99.90;;;;;;5114588;28;20631;-67
2022/04/24 18:23:34;;;;;;;6.68;5.10;;;14.60;99.90;;;;;;5114580;28;20179;-67
2022/04/24 18:26:01;;;;;;;8.32;4.60;;;14.60;99.90;;;;;;5114328;28;20159;-67
2022/04/24 18:28:27;;;;;;;4.90;4.50;;;14.40;99.90;;;;;;5113250;28;20191;-68
2022/04/24 18:30:55;;;;;;;5.65;5.15;;;14.30;99.90;;;;;;5114322;28;20199;-67
2022/04/24 18:33:21;;;;;;;5.50;4.57;;;14.10;99.90;;;;;;5114541;28;20163;-67
2022/04/24 18:38:37;;;;;;;4.75;4.45;;;13.80;99.90;;;;;;5114189;28;20188;-67
2022/04/24 18:41:03;;;;;;;4.93;4.53;;;13.70;99.90;;;;;;5114230;28;20174;-67
